createdAt,value
2023-03-04T00:00:03.324Z,84.4
2023-03-04T00:03:03.490Z,84.4
2023-03-04T00:06:03.379Z,84.4
2023-03-04T00:09:03.344Z,84.4
2023-03-04T00:12:03.337Z,84.4
2023-03-04T00:15:03.329Z,84.4
2023-03-04T00:18:03.313Z,84.4
2023-03-04T00:21:03.274Z,84.4
2023-03-04T00:24:03.358Z,84.4
2023-03-04T00:27:03.342Z,84.4
2023-03-04T00:30:04.215Z,84.4
2023-03-04T00:33:03.348Z,84.4
2023-03-04T00:36:03.326Z,84.4
2023-03-04T00:39:03.306Z,84.4
2023-03-04T00:42:03.281Z,84.4
2023-03-04T00:45:03.370Z,84.4
2023-03-04T00:48:03.314Z,84.4
2023-03-04T00:51:03.328Z,83.2
2023-03-04T00:54:03.566Z,83.2
2023-03-04T00:57:03.359Z,83.2
2023-03-04T01:00:03.328Z,83.2
2023-03-04T01:03:03.351Z,83.2
2023-03-04T01:06:03.307Z,83.2
2023-03-04T01:09:03.325Z,83.2
2023-03-04T01:12:03.366Z,83.2
2023-03-04T01:15:03.299Z,83.2
2023-03-04T01:18:03.509Z,83.2
2023-03-04T01:21:03.381Z,83.2
2023-03-04T01:24:03.308Z,83.2
2023-03-04T01:27:03.299Z,82.8
2023-03-04T01:30:03.322Z,82.8
2023-03-04T01:33:03.322Z,82.8
2023-03-04T01:36:03.314Z,82.8
2023-03-04T01:39:03.297Z,82.8
2023-03-04T01:42:03.353Z,82.8
2023-03-04T01:45:03.366Z,82.3
2023-03-04T01:48:03.316Z,82.3
2023-03-04T01:51:03.289Z,82.3
2023-03-04T01:54:03.329Z,82.3
2023-03-04T01:57:03.302Z,82.3
2023-03-04T02:00:03.340Z,82.3
2023-03-04T02:03:03.383Z,82.3
2023-03-04T02:06:03.304Z,82.3
2023-03-04T02:09:03.431Z,82.3
2023-03-04T02:12:03.336Z,82.3
2023-03-04T02:15:03.332Z,82.3
2023-03-04T02:18:03.389Z,82.3
2023-03-04T02:21:03.321Z,82.3
2023-03-04T02:24:03.344Z,82.2
2023-03-04T02:27:03.288Z,82.2
2023-03-04T02:30:03.363Z,82.2
2023-03-04T02:33:03.326Z,82.2
2023-03-04T02:36:03.293Z,82.2
2023-03-04T02:39:03.560Z,82.2
2023-03-04T02:42:03.424Z,82.2
2023-03-04T02:45:03.366Z,82.5
2023-03-04T02:48:03.324Z,82.5
2023-03-04T02:51:03.340Z,82.5
2023-03-04T02:54:03.395Z,82.5
2023-03-04T02:57:03.331Z,82.5
2023-03-04T03:00:03.257Z,82.5
2023-03-04T03:03:03.559Z,82.5
2023-03-04T03:06:03.389Z,82.5
2023-03-04T03:09:03.308Z,82.5
2023-03-04T03:12:03.345Z,82.5
2023-03-04T03:15:03.611Z,82.9
2023-03-04T03:18:03.860Z,82.9
2023-03-04T03:21:03.323Z,82.9
2023-03-04T03:24:03.383Z,82.9
2023-03-04T03:27:03.419Z,82.9
2023-03-04T03:30:03.289Z,82.9
2023-03-04T03:33:03.323Z,82.9
2023-03-04T03:36:03.768Z,82.9
2023-03-04T03:39:03.316Z,82.9
2023-03-04T03:42:03.316Z,82.9
2023-03-04T03:45:03.392Z,82.9
2023-03-04T03:48:03.343Z,82.9
2023-03-04T03:51:03.386Z,82.9
2023-03-04T03:54:03.386Z,82.9
2023-03-04T03:57:03.367Z,82.9
2023-03-04T04:00:03.631Z,82.9
2023-03-04T04:03:03.656Z,82.9
2023-03-04T04:06:03.394Z,82.9
2023-03-04T04:09:03.351Z,82.9
2023-03-04T04:12:03.335Z,82.9
2023-03-04T04:15:03.977Z,82.9
2023-03-04T04:18:03.420Z,82.9
2023-03-04T04:21:03.321Z,82.9
2023-03-04T04:24:03.400Z,82.9
2023-03-04T04:27:03.373Z,82.9
2023-03-04T04:30:03.431Z,82.9
2023-03-04T04:33:03.363Z,82.9
2023-03-04T04:36:03.498Z,82.9
2023-03-04T04:39:03.385Z,82.9
2023-03-04T04:42:03.336Z,84.6
2023-03-04T04:45:03.403Z,84.6
2023-03-04T04:48:03.422Z,84.6
2023-03-04T04:51:03.385Z,84.6
2023-03-04T04:54:03.513Z,84.6
2023-03-04T04:57:03.320Z,84.6
2023-03-04T05:00:03.358Z,84.6
2023-03-04T05:03:03.538Z,84.6
2023-03-04T05:06:03.403Z,84.6
2023-03-04T05:09:03.306Z,84.6
2023-03-04T05:12:03.316Z,84.6
2023-03-04T05:15:03.309Z,84.6
2023-03-04T05:18:03.332Z,84.6
2023-03-04T05:21:03.352Z,84.6
2023-03-04T05:24:03.324Z,84.6
2023-03-04T05:27:03.312Z,84.6
2023-03-04T05:30:03.369Z,84.6
2023-03-04T05:33:03.332Z,84.6
2023-03-04T05:36:03.517Z,84.6
2023-03-04T05:39:03.336Z,84.6
2023-03-04T05:42:03.386Z,84.6
2023-03-04T05:45:03.386Z,84.6
2023-03-04T05:48:03.367Z,84.6
2023-03-04T05:51:03.338Z,84.6
2023-03-04T05:54:03.397Z,84.6
2023-03-04T05:57:03.344Z,86.7
2023-03-04T06:00:03.430Z,86.7
2023-03-04T06:03:03.553Z,86.7
2023-03-04T06:06:03.436Z,86.7
2023-03-04T06:09:03.599Z,86.7
2023-03-04T06:12:03.387Z,86.7
2023-03-04T06:15:03.333Z,86.7
2023-03-04T06:18:03.447Z,86.7
2023-03-04T06:21:03.420Z,86.7
2023-03-04T06:24:03.373Z,86.7
2023-03-04T06:27:03.483Z,86.7
2023-03-04T06:30:04.007Z,86.7
2023-03-04T06:33:03.382Z,86.7
2023-03-04T06:36:03.498Z,86.7
2023-03-04T06:39:03.363Z,86.7
2023-03-04T06:42:03.418Z,86.7
2023-03-04T06:45:03.437Z,88
2023-03-04T06:48:03.389Z,88
2023-03-04T06:51:03.379Z,88
2023-03-04T06:54:03.391Z,88
2023-03-04T06:57:03.354Z,88
2023-03-04T07:00:03.463Z,88
2023-03-04T07:03:03.420Z,88
2023-03-04T07:06:03.474Z,88
2023-03-04T07:09:03.540Z,88
2023-03-04T07:12:03.394Z,88
2023-03-04T07:15:03.618Z,88
2023-03-04T07:18:03.378Z,88
2023-03-04T07:21:03.398Z,88
2023-03-04T07:24:03.404Z,88
2023-03-04T07:27:03.408Z,88
2023-03-04T07:30:03.556Z,88
2023-03-04T07:33:03.469Z,87.7
2023-03-04T07:36:03.464Z,87.7
2023-03-04T07:39:03.415Z,87.7
2023-03-04T07:42:03.330Z,87.7
2023-03-04T07:45:03.420Z,87.7
2023-03-04T07:48:03.447Z,87.7
2023-03-04T07:51:03.584Z,87.7
2023-03-04T07:54:03.438Z,87.7
2023-03-04T07:57:03.472Z,87.7
2023-03-04T08:00:03.848Z,87.7
2023-03-04T08:03:03.398Z,87.7
2023-03-04T08:06:03.391Z,87.7
2023-03-04T08:09:03.386Z,87.7
2023-03-04T08:12:03.503Z,87.7
2023-03-04T08:15:03.456Z,87.7
2023-03-04T08:18:03.338Z,87.7
2023-03-04T08:21:03.521Z,87.7
2023-03-04T08:24:03.586Z,87.7
2023-03-04T08:27:03.462Z,88
2023-03-04T08:30:03.425Z,88
2023-03-04T08:33:03.545Z,88
2023-03-04T08:36:03.349Z,88
2023-03-04T08:39:03.416Z,88
2023-03-04T08:42:03.367Z,88
2023-03-04T08:45:03.399Z,87.9
2023-03-04T08:48:03.390Z,87.9
2023-03-04T08:51:03.470Z,87.9
2023-03-04T08:54:03.404Z,87.7
2023-03-04T08:57:03.411Z,87.7
2023-03-04T09:00:03.498Z,87.7
2023-03-04T09:03:03.400Z,87.7
2023-03-04T09:06:03.484Z,87.7
2023-03-04T09:09:03.350Z,87.7
2023-03-04T09:12:03.395Z,87.7
2023-03-04T09:15:16.196Z,87.7
2023-03-04T09:18:04.082Z,87.7
2023-03-04T09:21:03.424Z,87.7
2023-03-04T09:24:03.378Z,87.7
2023-03-04T09:27:03.492Z,87.7
2023-03-04T09:30:03.397Z,87.7
2023-03-04T09:33:03.371Z,87.7
2023-03-04T09:36:03.830Z,87.7
2023-03-04T09:39:03.361Z,87.7
2023-03-04T09:42:03.368Z,87.7
2023-03-04T09:45:03.373Z,87.7
2023-03-04T09:48:03.437Z,87.7
2023-03-04T09:51:03.398Z,87.7
2023-03-04T09:54:03.459Z,87.7
2023-03-04T09:57:03.429Z,87.7
2023-03-04T10:00:03.464Z,87.7
2023-03-04T10:03:03.381Z,87.7
2023-03-04T10:06:03.404Z,87.7
2023-03-04T10:09:03.414Z,87.7
2023-03-04T10:12:03.441Z,87.7
2023-03-04T10:15:03.425Z,87.7
2023-03-04T10:18:03.334Z,87.7
2023-03-04T10:21:03.363Z,87.7
2023-03-04T10:24:03.407Z,87.7
2023-03-04T10:27:03.384Z,87.7
2023-03-04T10:30:03.402Z,87.7
2023-03-04T10:33:03.408Z,87.7
2023-03-04T10:36:03.496Z,87.7
2023-03-04T10:39:03.332Z,89.2
2023-03-04T10:42:03.808Z,89.2
2023-03-04T10:45:03.416Z,89.2
2023-03-04T10:48:03.478Z,89.2
2023-03-04T10:51:03.426Z,89.2
2023-03-04T10:54:03.363Z,89.2
2023-03-04T10:57:03.355Z,86.8
2023-03-04T11:00:03.543Z,86.8
2023-03-04T11:03:03.310Z,86.8
2023-03-04T11:06:03.477Z,86.8
2023-03-04T11:09:03.490Z,86.8
2023-03-04T11:12:03.402Z,86.8
2023-03-04T11:15:03.387Z,86.8
2023-03-04T11:18:03.404Z,86.8
2023-03-04T11:21:03.436Z,86.8
2023-03-04T11:24:03.389Z,86.8
2023-03-04T11:27:03.453Z,86.8
2023-03-04T11:30:03.379Z,83.6
2023-03-04T11:33:03.388Z,83.6
2023-03-04T11:36:03.365Z,82.9
2023-03-04T11:39:03.619Z,82.9
2023-03-04T11:42:03.340Z,82.9
2023-03-04T11:45:03.460Z,82.9
2023-03-04T11:48:03.419Z,82.9
2023-03-04T11:51:03.389Z,82.9
2023-03-04T11:54:03.420Z,82.9
2023-03-04T11:57:03.340Z,82.9
2023-03-04T12:00:03.677Z,82.9
2023-03-04T12:03:03.430Z,82.9
2023-03-04T12:06:03.406Z,82.9
2023-03-04T12:09:03.552Z,82.9
2023-03-04T12:12:03.407Z,82.9
2023-03-04T12:15:03.467Z,84
2023-03-04T12:18:03.797Z,84
2023-03-04T12:21:03.374Z,84
2023-03-04T12:24:03.368Z,84
2023-03-04T12:27:03.372Z,84
2023-03-04T12:30:03.409Z,84
2023-03-04T12:33:03.799Z,84
2023-03-04T12:36:03.578Z,84
2023-03-04T12:39:03.445Z,81.3
2023-03-04T12:42:03.474Z,81.3
2023-03-04T12:45:03.449Z,81.3
2023-03-04T12:48:03.405Z,81.3
2023-03-04T12:51:03.456Z,81.3
2023-03-04T12:54:03.425Z,81.3
2023-03-04T12:57:03.397Z,81.3
2023-03-04T13:00:03.544Z,81.3
2023-03-04T13:03:03.712Z,81.3
2023-03-04T13:06:03.396Z,81.3
2023-03-04T13:09:03.425Z,75.1
2023-03-04T13:12:03.406Z,75.1
2023-03-04T13:15:03.379Z,75.1
2023-03-04T13:18:03.442Z,75.1
2023-03-04T13:21:03.362Z,75.1
2023-03-04T13:24:03.397Z,75.1
2023-03-04T13:27:03.325Z,75.1
2023-03-04T13:30:03.528Z,78.4
2023-03-04T13:33:03.407Z,78.4
2023-03-04T13:36:03.547Z,77.6
2023-03-04T13:39:03.366Z,77.6
2023-03-04T13:42:03.520Z,77.6
2023-03-04T13:45:03.452Z,77.6
2023-03-04T13:48:03.419Z,77.6
2023-03-04T13:51:03.442Z,77.6
2023-03-04T13:54:03.406Z,77.6
2023-03-04T13:57:03.370Z,77.6
2023-03-04T14:00:04.230Z,77.6
2023-03-04T14:03:03.498Z,77.6
2023-03-04T14:06:03.716Z,77.6
2023-03-04T14:09:03.327Z,77.6
2023-03-04T14:12:03.479Z,77.6
2023-03-04T14:15:03.728Z,77.6
2023-03-04T14:18:03.514Z,77.6
2023-03-04T14:21:03.333Z,77.6
2023-03-04T14:24:03.455Z,77.6
2023-03-04T14:27:03.406Z,77.6
2023-03-04T14:30:03.450Z,77.6
2023-03-04T14:33:03.352Z,77.6
2023-03-04T14:36:03.601Z,77.6
2023-03-04T14:39:03.411Z,77.6
2023-03-04T14:42:03.405Z,77.2
2023-03-04T14:45:03.466Z,77.2
2023-03-04T14:48:03.367Z,77.2
2023-03-04T14:51:03.471Z,74.2
2023-03-04T14:54:03.388Z,74.2
2023-03-04T14:57:03.410Z,74.2
2023-03-04T15:00:03.399Z,74.2
2023-03-04T15:03:03.354Z,74.2
2023-03-04T15:06:03.411Z,76.7
2023-03-04T15:09:03.441Z,76.7
2023-03-04T15:12:03.378Z,76.7
2023-03-04T15:15:03.432Z,76.7
2023-03-04T15:18:03.452Z,76.7
2023-03-04T15:21:03.396Z,76.7
2023-03-04T15:24:03.415Z,76.7
2023-03-04T15:27:03.391Z,76.7
2023-03-04T15:30:03.532Z,76.7
2023-03-04T15:33:03.448Z,76.7
2023-03-04T15:36:03.382Z,76.7
2023-03-04T15:39:03.377Z,76.7
2023-03-04T15:42:03.416Z,80.6
2023-03-04T15:45:03.388Z,80.6
2023-03-04T15:48:03.371Z,80.6
2023-03-04T15:51:03.366Z,80.6
2023-03-04T15:54:03.364Z,80.6
2023-03-04T15:57:03.399Z,80.6
2023-03-04T16:00:03.431Z,80.6
2023-03-04T16:03:03.417Z,80.6
2023-03-04T16:06:03.367Z,80.6
2023-03-04T16:09:05.680Z,80.6
2023-03-04T16:12:03.417Z,80.6
2023-03-04T16:15:05.774Z,80.6
2023-03-04T16:18:03.534Z,80.6
2023-03-04T16:21:04.937Z,80.6
2023-03-04T16:24:03.434Z,78.2
2023-03-04T16:27:05.941Z,78.2
2023-03-04T16:30:03.351Z,78.2
2023-03-04T16:33:03.423Z,78.2
2023-03-04T16:36:03.736Z,78.2
2023-03-04T16:39:03.334Z,78.2
2023-03-04T16:42:03.487Z,78.2
2023-03-04T16:45:04.101Z,78.2
2023-03-04T16:48:03.374Z,78.2
2023-03-04T16:51:03.451Z,78.2
2023-03-04T16:54:03.363Z,78.2
2023-03-04T16:57:03.379Z,78.9
2023-03-04T17:00:03.465Z,78.9
2023-03-04T17:03:03.640Z,78.9
2023-03-04T17:06:03.337Z,78.9
2023-03-04T17:09:03.361Z,78.9
2023-03-04T17:12:03.294Z,78.9
2023-03-04T17:15:03.324Z,78.9
2023-03-04T17:18:03.300Z,78.9
2023-03-04T17:21:03.311Z,78.9
2023-03-04T17:24:03.329Z,78.9
2023-03-04T17:27:03.338Z,78.9
2023-03-04T17:30:03.359Z,78.9
2023-03-04T17:33:03.422Z,78.9
2023-03-04T17:36:03.406Z,78.9
2023-03-04T17:39:03.391Z,78.9
2023-03-04T17:42:03.402Z,78.9
2023-03-04T17:45:03.358Z,78.9
2023-03-04T17:48:03.336Z,78.9
2023-03-04T17:51:03.366Z,78.9
2023-03-04T17:54:03.295Z,78.9
2023-03-04T17:57:03.365Z,78.9
2023-03-04T18:00:03.519Z,79.4
2023-03-04T18:03:03.276Z,79.4
2023-03-04T18:06:03.350Z,79.4
2023-03-04T18:09:03.384Z,79.4
2023-03-04T18:12:03.336Z,79.4
2023-03-04T18:15:03.442Z,79.4
2023-03-04T18:18:03.339Z,79.4
2023-03-04T18:21:03.312Z,79.4
2023-03-04T18:24:03.311Z,79.4
2023-03-04T18:27:03.393Z,79.4
2023-03-04T18:30:03.311Z,79.4
2023-03-04T18:33:03.667Z,79.4
2023-03-04T18:36:03.388Z,79.4
2023-03-04T18:39:03.438Z,78.3
2023-03-04T18:42:03.378Z,78.3
2023-03-04T18:45:03.348Z,78.3
2023-03-04T18:48:03.377Z,78.3
2023-03-04T18:51:03.314Z,78.3
2023-03-04T18:54:03.400Z,78.3
2023-03-04T18:57:03.415Z,78.3
2023-03-04T19:00:03.333Z,78.3
2023-03-04T19:03:03.372Z,78.3
2023-03-04T19:06:03.353Z,78.3
2023-03-04T19:09:03.397Z,78.3
2023-03-04T19:12:03.317Z,78.3
2023-03-04T19:15:03.407Z,78.3
2023-03-04T19:18:03.313Z,78.3
2023-03-04T19:21:07.426Z,78.3
2023-03-04T19:24:03.323Z,78.3
2023-03-04T19:27:03.344Z,78.3
2023-03-04T19:30:03.376Z,78.3
2023-03-04T19:33:03.357Z,78.3
2023-03-04T19:36:03.485Z,78.3
2023-03-04T19:39:03.381Z,78.3
2023-03-04T19:42:03.388Z,78.3
2023-03-04T19:45:03.388Z,78.3
2023-03-04T19:48:03.294Z,78.3
2023-03-04T19:51:03.380Z,78.3
2023-03-04T19:54:03.519Z,78.3
2023-03-04T19:57:03.330Z,78.3
2023-03-04T20:00:03.416Z,78.3
2023-03-04T20:03:03.307Z,78.3
2023-03-04T20:06:03.321Z,78.3
2023-03-04T20:09:03.753Z,78.3
2023-03-04T20:12:03.299Z,78.3
2023-03-04T20:15:03.273Z,78.3
2023-03-04T20:18:03.402Z,78.3
2023-03-04T20:21:03.346Z,78.3
2023-03-04T20:24:03.328Z,78.3
2023-03-04T20:27:04.079Z,77.2
2023-03-04T20:30:06.483Z,77.2
2023-03-04T20:33:03.312Z,77.2
2023-03-04T20:36:03.394Z,77.2
2023-03-04T20:39:27.342Z,77.2
2023-03-04T20:42:03.289Z,77.2
2023-03-04T20:45:03.349Z,77.2
2023-03-04T20:48:03.332Z,77.2
2023-03-04T20:51:03.359Z,77.2
2023-03-04T20:54:03.320Z,77.2
2023-03-04T20:57:03.341Z,77.2
2023-03-04T21:00:03.362Z,73.3
2023-03-04T21:03:03.295Z,73.3
2023-03-04T21:06:03.385Z,73.3
2023-03-04T21:09:03.295Z,73.3
2023-03-04T21:12:03.654Z,73.3
2023-03-04T21:15:03.288Z,73.3
2023-03-04T21:18:03.348Z,73.3
2023-03-04T21:21:03.270Z,73.3
2023-03-04T21:24:03.383Z,73.3
2023-03-04T21:27:03.320Z,73.3
2023-03-04T21:30:03.347Z,73.3
2023-03-04T21:33:05.991Z,72.7
2023-03-04T21:36:03.539Z,72.7
2023-03-04T21:39:03.341Z,72.7
2023-03-04T21:42:03.403Z,72.7
2023-03-04T21:45:03.592Z,72.7
2023-03-04T21:48:03.362Z,72.7
2023-03-04T21:51:03.385Z,72.7
2023-03-04T21:54:03.322Z,72.7
2023-03-04T21:57:03.351Z,72.7
2023-03-04T22:00:04.370Z,78.7
2023-03-04T22:03:03.344Z,78.7
2023-03-04T22:06:03.391Z,78.7
2023-03-04T22:09:03.387Z,78.7
2023-03-04T22:12:03.450Z,78.7
2023-03-04T22:15:03.383Z,80
2023-03-04T22:18:03.316Z,80
2023-03-04T22:21:03.404Z,80
2023-03-04T22:24:03.366Z,80
2023-03-04T22:27:03.455Z,80
2023-03-04T22:30:03.420Z,80
2023-03-04T22:33:03.407Z,80
2023-03-04T22:36:03.471Z,80
2023-03-04T22:39:03.660Z,80
2023-03-04T22:42:03.298Z,80
2023-03-04T22:45:03.382Z,80
2023-03-04T22:48:03.375Z,80
2023-03-04T22:51:03.383Z,80
2023-03-04T22:54:03.347Z,80
2023-03-04T22:57:03.410Z,80
2023-03-04T23:00:03.923Z,80
2023-03-04T23:03:03.439Z,80
2023-03-04T23:06:03.373Z,80
2023-03-04T23:09:03.351Z,80
2023-03-04T23:12:03.428Z,80
2023-03-04T23:15:03.651Z,80
2023-03-04T23:18:03.490Z,80
2023-03-04T23:21:03.355Z,80
2023-03-04T23:24:03.351Z,80
2023-03-04T23:27:03.359Z,80
2023-03-04T23:30:03.367Z,80
2023-03-04T23:33:03.343Z,83.2
2023-03-04T23:36:03.461Z,83.2
2023-03-04T23:39:03.377Z,83.2
2023-03-04T23:42:03.378Z,83.2
2023-03-04T23:45:03.447Z,83.2
2023-03-04T23:48:03.356Z,83.2
2023-03-04T23:51:03.435Z,83.2
2023-03-04T23:54:03.355Z,83.2
2023-03-04T23:57:03.356Z,83.2
